Goodyears Corners, New York
Current Conditions -  °F | °C
As of 12:56 AM on Sunday 26 Oct 2014 (Local Time) from KITH Reporting Station
Light Rain Light Rain  
Wind Chill:   Ceiling: 5500
Heat Index:   Visibility: 10mi
Dew Point:   Wind: 6mph
Humidity: 93%   Direction: 320°NW
Pressure: 29.62"   Gusts: NA
Location:  42.6734°N, 76.6263°W
Report Text: KITH 260456Z AUTO 32005KT 10SM -RA FEW032 SCT041 BKN055 08/07 A2962 RMK AO2 T00830072 401880016 LTG DSNT SE TSE38RAB07 P0008 WSHFT 0402 PK WND 34026/0404 SLP031
Loading
Personal Weather Stations






























Interactive Weather Map
Tropical Storm Tracking
New forecast layout! Learn more

10-Day Weather Forecast

Advertisements
Track Severe Weather on mobile